Observation data for Reese Center on 02/16/2017      Previous  Date  Next       Current Mesonet Observations  Soil Data  Daily Summary Page  Observations in Plain Language
KREE 160600Z 21008KT 00/M02 A3012 RMK A01 T00041016  RH  087%=      5-min Rain = 0
KREE 160605Z 21007KT 00/M02 A3012 RMK A01 T00041016  RH  088%=      5-min Rain = 0
KREE 160610Z 21008KT 00/M02 A3012 RMK A01 T00041016  RH  087%=      5-min Rain = 0
KREE 160615Z 21008KT 01/M02 A3012 RMK A01 T00051016  RH  087%=      5-min Rain = 0
KREE 160620Z 22009KT 00/M02 A3012 RMK A01 T00041018  RH  086%=      5-min Rain = 0
KREE 160625Z 22009KT 00/M02 A3012 RMK A01 T00041020  RH  085%=      5-min Rain = 0
KREE 160630Z 21008KT 01/M02 A3012 RMK A01 T00051018  RH  085%=      5-min Rain = 0
KREE 160635Z 21007KT 01/M02 A3012 RMK A01 T00061018  RH  085%=      5-min Rain = 0
KREE 160640Z 22008KT 01/M02 A3011 RMK A01 T00051019  RH  085%=      5-min Rain = 0
KREE 160645Z 21008KT 01/M02 A3011 RMK A01 T00051019  RH  085%=      5-min Rain = 0
KREE 160650Z 21008KT 00/M02 A3011 RMK A01 T00041020  RH  085%=      5-min Rain = 0
KREE 160655Z 22008KT 00/M02 A3011 RMK A01 T00031021  RH  085%=      5-min Rain = 0
KREE 160700Z 22008KT 00/M02 A3011 RMK A01 T00031021  RH  085%=      5-min Rain = 0
KREE 160705Z 22008KT 00/M02 A3011 RMK A01 T00021022  RH  085%=      5-min Rain = 0
KREE 160710Z 22007KT 00/M02 A3011 RMK A01 T00011023  RH  085%=      5-min Rain = 0
KREE 160715Z 22007KT 00/02 A3011 RMK A01 T00000-23  RH  085%=      5-min Rain = 0
KREE 160720Z 22007KT 00/02 A3011 RMK A01 T00000-23  RH  086%=      5-min Rain = 0
KREE 160725Z 22008KT 00/02 A301 RMK A01 T00-00-23  RH  085%=      5-min Rain = 0
KREE 160730Z 22007KT M00/M02 A301 RMK A01 T10011023  RH  086%=      5-min Rain = 0
KREE 160735Z 22008KT M00/M02 A301 RMK A01 T10011024  RH  086%=      5-min Rain = 0
KREE 160740Z 22007KT M00/M03 A301 RMK A01 T10031025  RH  086%=      5-min Rain = 0
KREE 160745Z 22007KT M00/M03 A301 RMK A01 T10041025  RH  087%=      5-min Rain = 0
KREE 160750Z 22007KT M00/M02 A301 RMK A01 T10031024  RH  087%=      5-min Rain = 0
KREE 160755Z 22007KT M00/M02 A301 RMK A01 T10031024  RH  087%=      5-min Rain = 0
KREE 160800Z 22007KT M01/M03 A301 RMK A01 T10051025  RH  087%=      5-min Rain = 0
KREE 160805Z 22007KT M01/M03 A301 RMK A01 T10061025  RH  088%=      5-min Rain = 0
KREE 160810Z 22007KT M01/M03 A301 RMK A01 T10061026  RH  088%=      5-min Rain = 0
KREE 160815Z 22007KT M01/M03 A301 RMK A01 T10081027  RH  088%=      5-min Rain = 0
KREE 160820Z 22007KT M01/M03 A301 RMK A01 T10091027  RH  089%=      5-min Rain = 0
KREE 160825Z 22007KT M01/M03 A301 RMK A01 T10091027  RH  088%=      5-min Rain = 0
KREE 160830Z 23007KT M01/M03 A3009 RMK A01 T10081027  RH  088%=      5-min Rain = 0
KREE 160835Z 23007KT M01/M03 A3009 RMK A01 T10071026  RH  088%=      5-min Rain = 0
KREE 160840Z 24007KT M01/M03 A3009 RMK A01 T10071027  RH  088%=      5-min Rain = 0
KREE 160845Z 23007KT M01/M03 A3009 RMK A01 T10091028  RH  088%=      5-min Rain = 0
KREE 160850Z 22007KT M01/M03 A3009 RMK A01 T10101029  RH  088%=      5-min Rain = 0
KREE 160855Z 22008KT M01/M03 A3009 RMK A01 T10121030  RH  089%=      5-min Rain = 0
KREE 160900Z 23007KT M01/M03 A3009 RMK A01 T10131030  RH  090%=      5-min Rain = 0
KREE 160905Z 23006KT M01/M03 A3009 RMK A01 T10131031  RH  089%=      5-min Rain = 0
KREE 160910Z 25007KT M02/M03 A3009 RMK A01 T10151032  RH  089%=      5-min Rain = 0
KREE 160915Z 25007KT M02/M03 A3009 RMK A01 T10171033  RH  090%=      5-min Rain = 0
KREE 160920Z 25008KT M02/M03 A3008 RMK A01 T10171032  RH  091%=      5-min Rain = 0
KREE 160925Z 25008KT M01/M03 A3008 RMK A01 T10141030  RH  090%=      5-min Rain = 0
KREE 160930Z 26007KT M01/M03 A3008 RMK A01 T10121029  RH  089%=      5-min Rain = 0
KREE 160935Z 26008KT M01/M03 A3008 RMK A01 T10111028  RH  089%=      5-min Rain = 0
KREE 160940Z 26008KT M01/M03 A3008 RMK A01 T10111029  RH  089%=      5-min Rain = 0
KREE 160945Z 26008KT M01/M03 A3008 RMK A01 T10121029  RH  089%=      5-min Rain = 0
KREE 160950Z 26008KT M01/M03 A3008 RMK A01 T10101028  RH  088%=      5-min Rain = 0
KREE 160955Z 26008KT M01/M03 A3007 RMK A01 T10101030  RH  088%=      5-min Rain = 0
KREE 161000Z 26007KT M01/M03 A3007 RMK A01 T10111031  RH  088%=      5-min Rain = 0
KREE 161005Z 26007KT M01/M03 A3007 RMK A01 T10121031  RH  088%=      5-min Rain = 0
KREE 161010Z 26007KT M01/M03 A3007 RMK A01 T10121031  RH  088%=      5-min Rain = 0
KREE 161015Z 26007KT M01/M03 A3007 RMK A01 T10121032  RH  087%=      5-min Rain = 0
KREE 161020Z 26007KT M01/M03 A3007 RMK A01 T10121032  RH  087%=      5-min Rain = 0
KREE 161025Z 27006KT M01/M03 A3007 RMK A01 T10121031  RH  088%=      5-min Rain = 0
KREE 161030Z 27007KT M01/M03 A3007 RMK A01 T10091030  RH  087%=      5-min Rain = 0
KREE 161035Z 27006KT M01/M03 A3006 RMK A01 T10071030  RH  085%=      5-min Rain = 0
KREE 161040Z 27007KT M01/M03 A3006 RMK A01 T10061030  RH  085%=      5-min Rain = 0
KREE 161045Z 27008KT M01/M03 A3006 RMK A01 T10061030  RH  085%=      5-min Rain = 0
KREE 161050Z 27008KT M01/M03 A3006 RMK A01 T10051029  RH  085%=      5-min Rain = 0
KREE 161055Z 26008KT M01/M03 A3006 RMK A01 T10061030  RH  085%=      5-min Rain = 0
KREE 161100Z 25008KT M01/M03 A3006 RMK A01 T10081032  RH  085%=      5-min Rain = 0
KREE 161105Z 25008KT M01/M03 A3006 RMK A01 T10101034  RH  085%=      5-min Rain = 0
KREE 161110Z 25009KT M01/M03 A3006 RMK A01 T10091034  RH  085%=      5-min Rain = 0
KREE 161115Z 25009KT M01/M03 A3006 RMK A01 T10061033  RH  083%=      5-min Rain = 0
KREE 161120Z 25009KT M01/M03 A3006 RMK A01 T10051032  RH  083%=      5-min Rain = 0
KREE 161125Z 25009KT M00/M03 A3006 RMK A01 T10041031  RH  083%=      5-min Rain = 0
KREE 161130Z 25009KT M00/M03 A3006 RMK A01 T10031031  RH  082%=      5-min Rain = 0
KREE 161135Z 24008KT M00/M03 A3006 RMK A01 T10041032  RH  083%=      5-min Rain = 0
KREE 161140Z 25008KT M01/M03 A3006 RMK A01 T10061033  RH  083%=      5-min Rain = 0
KREE 161145Z 25008KT M01/M03 A3006 RMK A01 T10081034  RH  083%=      5-min Rain = 0
KREE 161150Z 25008KT M01/M03 A3006 RMK A01 T10081034  RH  083%=      5-min Rain = 0
KREE 161155Z 25008KT M01/M04 A3006 RMK A01 T10101035  RH  084%=      5-min Rain = 0
KREE 161200Z 25008KT M01/M04 A3006 RMK A01 T10101035  RH  084%=      5-min Rain = 0
KREE 161205Z 25007KT M01/M04 A3006 RMK A01 T10111036  RH  084%=      5-min Rain = 0
KREE 161210Z 25007KT M01/M04 A3005 RMK A01 T10131036  RH  085%=      5-min Rain = 0
KREE 161215Z 25007KT M01/M04 A3005 RMK A01 T10131036  RH  086%=      5-min Rain = 0
KREE 161220Z 26007KT M01/M04 A3005 RMK A01 T10131035  RH  086%=      5-min Rain = 0
KREE 161225Z 26007KT M01/M04 A3005 RMK A01 T10141035  RH  087%=      5-min Rain = 0
KREE 161230Z 26007KT M01/M04 A3005 RMK A01 T10141035  RH  087%=      5-min Rain = 0
KREE 161235Z 26007KT M01/M04 A3005 RMK A01 T10141035  RH  087%=      5-min Rain = 0
KREE 161240Z 26007KT M01/M04 A3005 RMK A01 T10141036  RH  086%=      5-min Rain = 0
KREE 161245Z 26007KT M01/M04 A3004 RMK A01 T10141036  RH  086%=      5-min Rain = 0
KREE 161250Z 26006KT M01/M04 A3005 RMK A01 T10141037  RH  086%=      5-min Rain = 0
KREE 161255Z 25005KT M02/M04 A3005 RMK A01 T10151037  RH  086%=      5-min Rain = 0
KREE 161300Z 25005KT M01/M04 A3005 RMK A01 T10141037  RH  085%=      5-min Rain = 0
KREE 161305Z 25007KT M01/M04 A3004 RMK A01 T10111036  RH  084%=      5-min Rain = 0
KREE 161310Z 25007KT M01/M04 A3004 RMK A01 T10101037  RH  083%=      5-min Rain = 0
KREE 161315Z 24005KT M01/M04 A3005 RMK A01 T10131038  RH  084%=      5-min Rain = 0
KREE 161320Z 23005KT M01/M04 A3005 RMK A01 T10131037  RH  084%=      5-min Rain = 0
KREE 161325Z 23005KT M01/M04 A3005 RMK A01 T10121038  RH  083%=      5-min Rain = 0
KREE 161330Z 23006KT M01/M04 A3005 RMK A01 T10131039  RH  083%=      5-min Rain = 0
KREE 161335Z 22006KT M02/M04 A3005 RMK A01 T10161039  RH  085%=      5-min Rain = 0
KREE 161340Z 21007KT M02/M04 A3005 RMK A01 T10181037  RH  088%=      5-min Rain = 0
KREE 161345Z 21006KT M02/M04 A3005 RMK A01 T10151035  RH  087%=      5-min Rain = 0
KREE 161350Z 20006KT M01/M03 A3005 RMK A01 T10131033  RH  087%=      5-min Rain = 0
KREE 161355Z 22006KT M01/M03 A3005 RMK A01 T10111032  RH  086%=      5-min Rain = 0
KREE 161400Z 21005KT M01/M03 A3005 RMK A01 T10091032  RH  085%=      5-min Rain = 0
KREE 161405Z 22004KT M01/M03 A3005 RMK A01 T10081032  RH  085%=      5-min Rain = 0
KREE 161410Z 23004KT M01/M03 A3005 RMK A01 T10061031  RH  084%=      5-min Rain = 0
KREE 161415Z 23004KT M00/M03 A3005 RMK A01 T10031028  RH  084%=      5-min Rain = 0
KREE 161420Z 23005KT 00/03 A3005 RMK A01 T00000-26  RH  084%=      5-min Rain = 0
KREE 161425Z 22006KT 00/M02 A3005 RMK A01 T00031023  RH  084%=      5-min Rain = 0
KREE 161430Z 22006KT 01/M02 A3005 RMK A01 T00071020  RH  083%=      5-min Rain = 0
KREE 161435Z 22007KT 01/M02 A3005 RMK A01 T00111019  RH  081%=      5-min Rain = 0
KREE 161440Z 23007KT 02/M02 A3005 RMK A01 T00161018  RH  079%=      5-min Rain = 0
KREE 161445Z 23007KT 02/M02 A3005 RMK A01 T00211018  RH  077%=      5-min Rain = 0
KREE 161450Z 23007KT 03/M02 A3005 RMK A01 T00271017  RH  074%=      5-min Rain = 0
KREE 161455Z 23008KT 03/M02 A3005 RMK A01 T00331015  RH  072%=      5-min Rain = 0
KREE 161500Z 23008KT 04/M01 A3005 RMK A01 T00381011  RH  071%=      5-min Rain = 0
KREE 161505Z 23008KT 04/M01 A3005 RMK A01 T00401012  RH  070%=      5-min Rain = 0
KREE 161510Z 23008KT 04/M01 A3005 RMK A01 T00431010  RH  069%=      5-min Rain = 0
KREE 161515Z 23009KT 05/M01 A3005 RMK A01 T00461011  RH  067%=      5-min Rain = 0
KREE 161520Z 22009KT 05/M01 A3005 RMK A01 T00491009  RH  067%=      5-min Rain = 0
KREE 161525Z 22011KT 05/M01 A3005 RMK A01 T00501011  RH  065%=      5-min Rain = 0
KREE 161530Z 23012KT 05/M01 A3005 RMK A01 T00531012  RH  063%=      5-min Rain = 0
KREE 161535Z 22009KT 06/M01 A3005 RMK A01 T00581006  RH  064%=      5-min Rain = 0
KREE 161540Z 22011KT 06/M01 A3005 RMK A01 T00611008  RH  062%=      5-min Rain = 0
KREE 161545Z 22013KT 06/M01 A3005 RMK A01 T00601014  RH  060%=      5-min Rain = 0
KREE 161550Z 23013KT 06/M02 A3004 RMK A01 T00561016  RH  060%=      5-min Rain = 0
KREE 161555Z 23012KT 06/M01 A3004 RMK A01 T00581014  RH  060%=      5-min Rain = 0
KREE 161600Z 23010KT 06/M01 A3004 RMK A01 T00591014  RH  060%=      5-min Rain = 0
KREE 161605Z 23011KT 06/M01 A3004 RMK A01 T00641010  RH  060%=      5-min Rain = 0
KREE 161610Z 23013KT 07/M02 A3004 RMK A01 T00731015  RH  054%=      5-min Rain = 0
KREE 161615Z 23012KT 07/M01 A3004 RMK A01 T00731013  RH  055%=      5-min Rain = 0
KREE 161620Z 22011KT 07/M01 A3004 RMK A01 T00711009  RH  057%=      5-min Rain = 0
KREE 161625Z 23014KT 07/M01 A3003 RMK A01 T00741012  RH  055%=      5-min Rain = 0
KREE 161630Z 24014KT 09/M01 A3003 RMK A01 T00851013  RH  051%=      5-min Rain = 0
KREE 161635Z 24013KT 09/M01 A3003 RMK A01 T00851012  RH  051%=      5-min Rain = 0
KREE 161640Z 23014KT 09/M01 A3003 RMK A01 T00871009  RH  052%=      5-min Rain = 0
KREE 161645Z 23013KT 09/M01 A3003 RMK A01 T00881007  RH  052%=      5-min Rain = 0
KREE 161650Z 24013KT 09/M01 A3002 RMK A01 T00941008  RH  049%=      5-min Rain = 0
KREE 161655Z 24015G20KT 10/M01 A3002 RMK A01 T00981014  RH  046%=      5-min Rain = 0
KREE 161700Z 24014KT 11/M01 A3002 RMK A01 T01051012  RH  044%=      5-min Rain = 0
KREE 161705Z 25014KT 11/M01 A3001 RMK A01 T01111011  RH  043%=      5-min Rain = 0
KREE 161710Z 24014KT 12/M01 A3001 RMK A01 T01171008  RH  042%=      5-min Rain = 0
KREE 161715Z 24014G19KT 12/M02 A3001 RMK A01 T01201015  RH  040%=      5-min Rain = 0
KREE 161720Z 24015KT 12/M02 A3001 RMK A01 T01211023  RH  037%=      5-min Rain = 0
KREE 161725Z 24014KT 13/M02 A3001 RMK A01 T01251024  RH  036%=      5-min Rain = 0
KREE 161730Z 25014KT 13/M03 A3001 RMK A01 T01291025  RH  034%=      5-min Rain = 0
KREE 161735Z 24015KT 13/M03 A3001 RMK A01 T01321026  RH  034%=      5-min Rain = 0
KREE 161740Z 24016KT 13/M02 A3001 RMK A01 T01311022  RH  035%=      5-min Rain = 0
KREE 161745Z 23015KT 13/M02 A3001 RMK A01 T01311020  RH  036%=      5-min Rain = 0
KREE 161750Z 22014KT 13/M02 A3001 RMK A01 T01291018  RH  036%=      5-min Rain = 0
KREE 161755Z 22014KT 13/M02 A3001 RMK A01 T01301016  RH  037%=      5-min Rain = 0
KREE 161800Z 21014G19KT 13/M01 A3001 RMK A01 T01251011  RH  039%=      5-min Rain = 0
KREE 161805Z 22013G18KT 13/M01 A3001 RMK A01 T01251010  RH  040%=      5-min Rain = 0
KREE 161810Z 21015KT 12/M01 A30 RMK A01 T01241009  RH  040%=      5-min Rain = 0
KREE 161815Z 20015KT 12/M01 A30 RMK A01 T01181008  RH  042%=      5-min Rain = 0
KREE 161820Z 21014KT 12/M01 A30 RMK A01 T01161009  RH  043%=      5-min Rain = 0
KREE 161825Z 21014KT 12/M01 A30 RMK A01 T01191011  RH  041%=      5-min Rain = 0
KREE 161830Z 22012KT 12/M01 A30 RMK A01 T01231011  RH  040%=      5-min Rain = 0
KREE 161835Z 23014KT 12/M01 A2999 RMK A01 T01241013  RH  039%=      5-min Rain = 0
KREE 161840Z 22013KT 13/M01 A2999 RMK A01 T01261013  RH  038%=      5-min Rain = 0
KREE 161845Z 23012KT 13/M02 A2999 RMK A01 T01341016  RH  036%=      5-min Rain = 0
KREE 161850Z 23011KT 14/M02 A2998 RMK A01 T01411021  RH  033%=      5-min Rain = 0
KREE 161855Z 23012G18KT 15/M03 A2998 RMK A01 T01501025  RH  030%=      5-min Rain = 0
KREE 161900Z 23012KT 15/M03 A2997 RMK A01 T01531029  RH  029%=      5-min Rain = 0
KREE 161905Z 23012KT 16/M03 A2997 RMK A01 T01551030  RH  028%=      5-min Rain = 0
KREE 161910Z 24013G20KT 16/M03 A2997 RMK A01 T01561032  RH  028%=      5-min Rain = 0
KREE 161915Z 23013G19KT 16/M03 A2996 RMK A01 T01581032  RH  027%=      5-min Rain = 0
KREE 161920Z 22013G18KT 16/M03 A2996 RMK A01 T01591032  RH  027%=      5-min Rain = 0
KREE 161925Z 23013G19KT 16/M04 A2996 RMK A01 T01591036  RH  026%=      5-min Rain = 0
KREE 161930Z 23012G17KT 16/M03 A2996 RMK A01 T01611032  RH  027%=      5-min Rain = 0
KREE 161935Z 23013G20KT 16/M04 A2995 RMK A01 T01631035  RH  026%=      5-min Rain = 0
KREE 161940Z 24012G17KT 16/M04 A2995 RMK A01 T01581035  RH  027%=      5-min Rain = 0
KREE 161945Z 23013G18KT 16/M03 A2995 RMK A01 T01581033  RH  027%=      5-min Rain = 0
KREE 161950Z 21016KT 16/M03 A2995 RMK A01 T01581031  RH  027%=      5-min Rain = 0
KREE 161955Z 21013KT 15/M03 A2995 RMK A01 T01531032  RH  028%=      5-min Rain = 0
KREE 162000Z 22012G19KT 16/M03 A2994 RMK A01 T01621028  RH  027%=      5-min Rain = 0
KREE 162005Z 23014G19KT 16/M03 A2994 RMK A01 T01581034  RH  027%=      5-min Rain = 0
KREE 162010Z 23012G19KT 16/M04 A2994 RMK A01 T01581036  RH  027%=      5-min Rain = 0
KREE 162015Z 23013G18KT 16/M04 A2994 RMK A01 T01581039  RH  026%=      5-min Rain = 0
KREE 162020Z 21013G18KT 16/M04 A2994 RMK A01 T01571044  RH  025%=      5-min Rain = 0
KREE 162025Z 22011KT 16/M05 A2993 RMK A01 T01561047  RH  025%=      5-min Rain = 0
KREE 162030Z 21012G17KT 15/M05 A2993 RMK A01 T01541046  RH  025%=      5-min Rain = 0
KREE 162035Z 21015G22KT 15/M05 A2993 RMK A01 T01541048  RH  025%=      5-min Rain = 0
KREE 162040Z 22014KT 16/M05 A2993 RMK A01 T01571045  RH  025%=      5-min Rain = 0
KREE 162045Z 22012G17KT 16/M05 A2992 RMK A01 T01621045  RH  024%=      5-min Rain = 0
KREE 162050Z 23012KT 17/M05 A2992 RMK A01 T01651045  RH  024%=      5-min Rain = 0
KREE 162055Z 22011KT 17/M04 A2992 RMK A01 T01661042  RH  024%=      5-min Rain = 0
KREE 162100Z 22012KT 17/M04 A2992 RMK A01 T01711040  RH  024%=      5-min Rain = 0
KREE 162105Z 20013G19KT 17/M04 A2992 RMK A01 T01671041  RH  024%=      5-min Rain = 0
KREE 162110Z 23013G18KT 17/M04 A2991 RMK A01 T01651041  RH  024%=      5-min Rain = 0
KREE 162115Z 20013KT 16/M05 A2991 RMK A01 T01631046  RH  024%=      5-min Rain = 0
KREE 162120Z 21013G19KT 16/M05 A2991 RMK A01 T01641045  RH  024%=      5-min Rain = 0
KREE 162125Z 21014KT 17/M05 A2991 RMK A01 T01651045  RH  024%=      5-min Rain = 0
KREE 162130Z 22013KT 17/M05 A2991 RMK A01 T01701045  RH  023%=      5-min Rain = 0
KREE 162135Z 22013G18KT 17/M05 A2991 RMK A01 T01731046  RH  022%=      5-min Rain = 0
KREE 162140Z 21013G19KT 18/M05 A2991 RMK A01 T01761045  RH  022%=      5-min Rain = 0
KREE 162145Z 22013G19KT 18/M05 A2991 RMK A01 T01771045  RH  022%=      5-min Rain = 0
KREE 162150Z 22014KT 18/M05 A2991 RMK A01 T01761048  RH  021%=      5-min Rain = 0
KREE 162155Z 21013G18KT 17/M05 A2991 RMK A01 T01741051  RH  021%=      5-min Rain = 0
KREE 162200Z 20012G18KT 17/M05 A299 RMK A01 T01741049  RH  022%=      5-min Rain = 0
KREE 162205Z 21014KT 18/M05 A299 RMK A01 T01751053  RH  021%=      5-min Rain = 0
KREE 162210Z 22014G19KT 17/M05 A299 RMK A01 T01741051  RH  021%=      5-min Rain = 0
KREE 162215Z 21016KT 17/M05 A299 RMK A01 T01731050  RH  022%=      5-min Rain = 0
KREE 162220Z 22014KT 17/M05 A299 RMK A01 T01741054  RH  021%=      5-min Rain = 0
KREE 162225Z 22012G17KT 17/M06 A299 RMK A01 T01741056  RH  021%=      5-min Rain = 0
KREE 162230Z 21013G19KT 18/M05 A299 RMK A01 T01771048  RH  022%=      5-min Rain = 0
KREE 162235Z 21013KT 18/M05 A299 RMK A01 T01751049  RH  022%=      5-min Rain = 0
KREE 162240Z 20016KT 17/M04 A2989 RMK A01 T01741042  RH  023%=      5-min Rain = 0
KREE 162245Z 19016G21KT 17/M04 A2989 RMK A01 T01721040  RH  024%=      5-min Rain = 0
KREE 162250Z 21017KT 17/M04 A2989 RMK A01 T01691041  RH  024%=      5-min Rain = 0
KREE 162255Z 21014G20KT 17/M04 A2989 RMK A01 T01681040  RH  024%=      5-min Rain = 0
KREE 162300Z 20015KT 17/M04 A2989 RMK A01 T01661041  RH  024%=      5-min Rain = 0
KREE 162305Z 20016KT 16/M04 A299 RMK A01 T01621044  RH  024%=      5-min Rain = 0
KREE 162310Z 20017KT 16/M04 A2989 RMK A01 T01611043  RH  025%=      5-min Rain = 0
KREE 162315Z 19016KT 16/M05 A2989 RMK A01 T01551045  RH  025%=      5-min Rain = 0
KREE 162320Z 20015KT 16/M04 A2989 RMK A01 T01581043  RH  025%=      5-min Rain = 0
KREE 162325Z 20015KT 16/M04 A299 RMK A01 T01601044  RH  025%=      5-min Rain = 0
KREE 162330Z 19014KT 16/M04 A299 RMK A01 T01571040  RH  026%=      5-min Rain = 0
KREE 162335Z 19014KT 15/M04 A299 RMK A01 T01501040  RH  027%=      5-min Rain = 0
KREE 162340Z 19012KT 15/M04 A299 RMK A01 T01471037  RH  028%=      5-min Rain = 0
KREE 162345Z 19012KT 15/M04 A299 RMK A01 T01451038  RH  028%=      5-min Rain = 0
KREE 162350Z 19011KT 14/M04 A299 RMK A01 T01431038  RH  029%=      5-min Rain = 0
KREE 162355Z 18011KT 14/M04 A299 RMK A01 T01411038  RH  029%=      5-min Rain = 0
KREE 170000Z 18010KT 14/M04 A299 RMK A01 T01391038  RH  029%=      5-min Rain = 0
KREE 170005Z 18009KT 14/M04 A299 RMK A01 T01361035  RH  031%=      5-min Rain = 0
KREE 170010Z 18009KT 14/M03 A299 RMK A01 T01351034  RH  031%=      5-min Rain = 0
KREE 170015Z 18009KT 13/M03 A2989 RMK A01 T01321032  RH  032%=      5-min Rain = 0
KREE 170020Z 18009KT 13/M03 A2989 RMK A01 T01291027  RH  034%=      5-min Rain = 0
KREE 170025Z 17009KT 13/M02 A2989 RMK A01 T01251020  RH  037%=      5-min Rain = 0
KREE 170030Z 17009KT 12/M02 A2989 RMK A01 T01211016  RH  039%=      5-min Rain = 0
KREE 170035Z 17009KT 12/M02 A2989 RMK A01 T01171015  RH  040%=      5-min Rain = 0
KREE 170040Z 17008KT 11/M01 A2989 RMK A01 T01131012  RH  042%=      5-min Rain = 0
KREE 170045Z 17008KT 11/M01 A2989 RMK A01 T01081010  RH  044%=      5-min Rain = 0
KREE 170050Z 17009KT 11/M01 A2989 RMK A01 T01061010  RH  045%=      5-min Rain = 0
KREE 170055Z 17010KT 10/M01 A2989 RMK A01 T01021009  RH  046%=      5-min Rain = 0
KREE 170100Z 18010KT 10/M01 A2989 RMK A01 T01001010  RH  047%=      5-min Rain = 0
KREE 170105Z 18010KT 10/M01 A2989 RMK A01 T00991012  RH  046%=      5-min Rain = 0
KREE 170110Z 18010KT 10/M01 A2989 RMK A01 T00991014  RH  046%=      5-min Rain = 0
KREE 170115Z 18009KT 10/M02 A2989 RMK A01 T00981017  RH  045%=      5-min Rain = 0
KREE 170120Z 19009KT 10/M02 A2989 RMK A01 T00961016  RH  046%=      5-min Rain = 0
KREE 170125Z 19009KT 09/M02 A2989 RMK A01 T00941016  RH  047%=      5-min Rain = 0
KREE 170130Z 19010KT 09/M02 A2989 RMK A01 T00931016  RH  047%=      5-min Rain = 0
KREE 170135Z 19010KT 09/M02 A2989 RMK A01 T00911016  RH  048%=      5-min Rain = 0
KREE 170140Z 19010KT 09/M02 A2989 RMK A01 T00891016  RH  048%=      5-min Rain = 0
KREE 170145Z 19011KT 09/M02 A2989 RMK A01 T00891016  RH  048%=      5-min Rain = 0
KREE 170150Z 19012KT 09/M02 A2989 RMK A01 T00881015  RH  049%=      5-min Rain = 0
KREE 170155Z 19012KT 09/M02 A2989 RMK A01 T00881016  RH  049%=      5-min Rain = 0
KREE 170200Z 20011KT 09/M02 A2989 RMK A01 T00881018  RH  048%=      5-min Rain = 0
KREE 170205Z 19010KT 09/M02 A2989 RMK A01 T00871018  RH  048%=      5-min Rain = 0
KREE 170210Z 20010KT 09/M02 A2989 RMK A01 T00851017  RH  049%=      5-min Rain = 0
KREE 170215Z 20010KT 08/M02 A2989 RMK A01 T00831017  RH  050%=      5-min Rain = 0
KREE 170220Z 20011KT 08/M02 A2989 RMK A01 T00831018  RH  049%=      5-min Rain = 0
KREE 170225Z 20011KT 08/M02 A2989 RMK A01 T00831019  RH  049%=      5-min Rain = 0
KREE 170230Z 20010KT 08/M02 A2988 RMK A01 T00821019  RH  050%=      5-min Rain = 0
KREE 170235Z 20009KT 08/M02 A2988 RMK A01 T00801018  RH  051%=      5-min Rain = 0
KREE 170240Z 20009KT 08/M02 A2988 RMK A01 T00761018  RH  052%=      5-min Rain = 0
KREE 170245Z 20009KT 07/M02 A2988 RMK A01 T00741019  RH  052%=      5-min Rain = 0
KREE 170250Z 20008KT 07/M02 A2988 RMK A01 T00721019  RH  053%=      5-min Rain = 0
KREE 170255Z 20008KT 07/M02 A2988 RMK A01 T00711019  RH  054%=      5-min Rain = 0
KREE 170300Z 20009KT 07/M02 A2988 RMK A01 T00711018  RH  054%=      5-min Rain = 0
KREE 170305Z 20008KT 07/M02 A2988 RMK A01 T00711017  RH  054%=      5-min Rain = 0
KREE 170310Z 20008KT 07/M02 A2988 RMK A01 T00691017  RH  055%=      5-min Rain = 0
KREE 170315Z 20007KT 07/M02 A2988 RMK A01 T00661017  RH  056%=      5-min Rain = 0
KREE 170320Z 19007KT 06/M02 A2988 RMK A01 T00641016  RH  057%=      5-min Rain = 0
KREE 170325Z 19007KT 06/M02 A2988 RMK A01 T00631016  RH  057%=      5-min Rain = 0
KREE 170330Z 19008KT 07/M02 A2988 RMK A01 T00651017  RH  057%=      5-min Rain = 0
KREE 170335Z 19009KT 07/M02 A2988 RMK A01 T00651016  RH  057%=      5-min Rain = 0
KREE 170340Z 19009KT 07/M02 A2988 RMK A01 T00651016  RH  057%=      5-min Rain = 0
KREE 170345Z 19010KT 07/M02 A2988 RMK A01 T00651015  RH  057%=      5-min Rain = 0
KREE 170350Z 19010KT 07/M01 A2988 RMK A01 T00651014  RH  058%=      5-min Rain = 0
KREE 170355Z 19010KT 06/M01 A2988 RMK A01 T00641014  RH  058%=      5-min Rain = 0
KREE 170400Z 19009KT 06/M01 A2988 RMK A01 T00621014  RH  059%=      5-min Rain = 0
KREE 170405Z 19010KT 06/M02 A2988 RMK A01 T00611015  RH  059%=      5-min Rain = 0
KREE 170410Z 19009KT 06/M01 A2988 RMK A01 T00601014  RH  059%=      5-min Rain = 0
KREE 170415Z 19009KT 06/M01 A2988 RMK A01 T00571014  RH  061%=      5-min Rain = 0
KREE 170420Z 19009KT 06/M01 A2988 RMK A01 T00561013  RH  062%=      5-min Rain = 0
KREE 170425Z 19009KT 06/M01 A2988 RMK A01 T00551012  RH  062%=      5-min Rain = 0
KREE 170430Z 19008KT 06/M01 A2988 RMK A01 T00561012  RH  062%=      5-min Rain = 0
KREE 170435Z 18007KT 06/M01 A2988 RMK A01 T00551011  RH  063%=      5-min Rain = 0
KREE 170440Z 18007KT 05/M01 A2988 RMK A01 T00531011  RH  064%=      5-min Rain = 0
KREE 170445Z 18007KT 05/M01 A2988 RMK A01 T00521011  RH  065%=      5-min Rain = 0
KREE 170450Z 19008KT 05/M01 A2988 RMK A01 T00511011  RH  065%=      5-min Rain = 0
KREE 170455Z 19008KT 05/M01 A2987 RMK A01 T00501011  RH  065%=      5-min Rain = 0
KREE 170500Z 19008KT 05/M01 A2987 RMK A01 T00491010  RH  067%=      5-min Rain = 0
KREE 170505Z 19008KT 05/M01 A2987 RMK A01 T00471009  RH  068%=      5-min Rain = 0
KREE 170510Z 18008KT 05/M01 A2987 RMK A01 T00451009  RH  069%=      5-min Rain = 0
KREE 170515Z 18008KT 04/M01 A2987 RMK A01 T00421008  RH  070%=      5-min Rain = 0
KREE 170520Z 18008KT 04/M01 A2987 RMK A01 T00411008  RH  071%=      5-min Rain = 0
KREE 170525Z 18009KT 04/M01 A2987 RMK A01 T00421007  RH  071%=      5-min Rain = 0
KREE 170530Z 18009KT 04/M01 A2987 RMK A01 T00421006  RH  072%=      5-min Rain = 0
KREE 170535Z 18010KT 04/M00 A2986 RMK A01 T00431004  RH  072%=      5-min Rain = 0
KREE 170540Z 18010KT 05/M00 A2986 RMK A01 T00451003  RH  072%=      5-min Rain = 0
KREE 170545Z 18010KT 05/M00 A2986 RMK A01 T00461002  RH  072%=      5-min Rain = 0
KREE 170550Z 18010KT 05/M00 A2986 RMK A01 T00471001  RH  072%=      5-min Rain = 0
KREE 170555Z 19010KT 05/M00 A2986 RMK A01 T00471001  RH  072%=      5-min Rain = 0

Page generated in 0.0181 seconds.